Nearby METAR Reports

 

KGSP - Greer/Spartansbg, South Carolina, USA
Distance from station: E 4mi, 6km
Updated: Sun, 19-Jan-2020 7:29am EST
Mostly cloudy
Mostly cloudy
 Wind from NNE
Wind: NNE 3 mph , 6 km/h
Temperature: 46°F , 8°C
Dew Point: 43°F , 6°C
Humidity: 87%
Barometer: 29.95 inHg , 1014.2 hPa
Clouds: Mostly cloudy
Visibility: 8 miles , 13 km
Cloud details: Mostly cloudy 600 ft
2020/01/19 12:29 KGSP 191229Z 02003KT 8SM BKN006 08/06 A2995 RMK AO2 T00780061
KGMU - Greenville, South Carolina, USA
Distance from station: SW 5mi, 8km
Updated: Sun, 19-Jan-2020 7:24am EST
Mist, Partly cloudy
Mist, Partly cloudy
 Wind from W
Wind: W 6 mph , 9 km/h
Temperature: 46°F , 8°C
Wind Chill: 43°F , 6°C
Dew Point: 45°F , 7°C
Humidity: 93%
Barometer: 29.95 inHg , 1014.2 hPa
Summary: Mist
Clouds: Partly cloudy
Visibility: 5 miles , 8 km
Cloud details: Partly cloudy 200 ft
2020/01/19 12:24 KGMU 191224Z 28005KT 5SM BR SCT002 08/07 A2995 RMK AO2 T00780072
 
KGYH - Greenville, South Carolina, USA
Distance from station: SSW 11mi, 18km
Updated: Sun, 19-Jan-2020 6:47am EST
Clear
Clear
 Wind from WSW
Wind: WSW 5 mph , 7 km/h
Temperature: 46°F , 8°C
Wind Chill: 44°F , 7°C
Dew Point: 45°F , 7°C
Humidity: 93%
Barometer: 29.94 inHg , 1013.9 hPa
Clouds: Clear
Visibility: 10 miles , 16 km
2020/01/19 11:47 KGYH 191147Z 24004KT 10SM CLR 08/07 A2994
KSPA - Spartanburg, South Carolina, USA
Distance from station: E 20mi, 32km
Updated: Sun, 19-Jan-2020 7:35am EST
Overcast
Overcast
 Wind from WSW
Wind: WSW 6 mph , 9 km/h
Temperature: 45°F , 7°C
Wind Chill: 42°F , 6°C
Dew Point: 45°F , 7°C
Humidity: 100%
Barometer: 29.95 inHg , 1014.2 hPa
Clouds: Overcast
Visibility: 7 miles , 11 km
Cloud details: Overcast 700 ft
2020/01/19 12:35 KSPA 191235Z AUTO 25005KT 7SM OVC007 07/07 A2995 RMK AO2
 
KLQK - Pickens, South Carolina, USA
Distance from station: WSW 24mi, 39km
Updated: Sun, 19-Jan-2020 7:35am EST
Mist, Partly cloudy
Mist, Partly cloudy
 Wind from calm
Wind: Calm
Temperature: 43°F , 6°C
Dew Point: 43°F , 6°C
Humidity: 100%
Barometer: 29.95 inHg , 1014.2 hPa
Summary: Mist
Clouds: Partly cloudy
Visibility: 2 miles , 3 km
Cloud details: Partly cloudy 100 ft
2020/01/19 12:35 KLQK 191235Z AUTO 00000KT 2SM BR SCT001 06/06 A2995 RMK AO2 VIS 1/2V5 T00590059
KLUX - Laurens, South Carolina, USA
Distance from station: SE 33mi, 54km
Updated: Sun, 19-Jan-2020 7:35am EST
Partly cloudy
Partly cloudy
 Wind from SW
Wind: SW 5 mph , 7 km/h
Temperature: 46°F , 8°C
Wind Chill: 44°F , 7°C
Dew Point: 46°F , 8°C
Humidity: 100%
Barometer: 29.96 inHg , 1014.6 hPa
Clouds: Partly cloudy
Visibility: 10 miles , 16 km
Cloud details: Partly cloudy 9500 ft
2020/01/19 12:35 KLUX 191235Z AUTO 23004KT 10SM SCT095 08/08 A2996 RMK AO2
 
KAND - Anderson, South Carolina, USA
Distance from station: SW 37mi, 59km
Updated: Sun, 19-Jan-2020 6:56am EST
Clear
Clear
 Wind from WSW
Wind: WSW 17 mph , 28 km/h
Temperature: 48°F , 9°C
Wind Chill: 42°F , 6°C
Dew Point: 45°F , 7°C
Humidity: 87%
Barometer: 29.97 inHg , 1014.9 hPa
Clouds: Clear
Visibility: 10 miles , 16 km
2020/01/19 11:56 KAND 191156Z AUTO 24015KT 10SM CLR 09/07 A2997 RMK AO2 SLP147 70036 T00940067 10100 20078 55001
KCEU - Clemson, South Carolina, USA
Distance from station: WSW 37mi, 60km
Updated: Sun, 19-Jan-2020 6:54am EST
Clear
Clear
 Wind from W
Wind: W 14 mph , 22 km/h
Temperature: 46°F , 8°C
Wind Chill: 40°F , 4°C
Dew Point: 37°F , 3°C
Humidity: 71%
Barometer: 29.97 inHg , 1014.9 hPa
Clouds: Clear
Visibility: 10 miles , 16 km
2020/01/19 11:54 KCEU 191154Z AUTO 26012KT 10SM CLR 08/03 A2997 RMK AO2 SLP150 60001 70035 T00830028 10083 20067 53003
 
KAVL - Asheville, North Carolina, USA
Distance from station: NNW 40mi, 64km
Updated: Sun, 19-Jan-2020 6:54am EST
Clear
Clear
 Wind from NNW
Wind: NNW 25 mph , 41 km/h, Gust: 32 mph , 52 km/h
Temperature: 41°F , 5°C
Wind Chill: 31°F , -1°C
Dew Point: 34°F , 1°C
Humidity: 76%
Barometer: 29.95 inHg , 1014.2 hPa
Clouds: Clear
Visibility: 10 miles , 16 km
2020/01/19 11:54 KAVL 191154Z 34022G28KT 10SM CLR 05/01 A2995 RMK AO2 PK WND 35028/1138 SLP141 70014 T00500011 10078 20050 53005
KFQD - Rutherfordton, North Carolina, USA
Distance from station: NNE 41mi, 66km
Updated: Sun, 19-Jan-2020 7:15am EST
Partly cloudy
Partly cloudy
 Wind from W
Wind: W 8 mph , 13 km/h
Temperature: 41°F , 5°C
Wind Chill: 36°F , 2°C
Dew Point: 41°F , 5°C
Humidity: 100%
Barometer: 29.94 inHg , 1013.9 hPa
Clouds: Partly cloudy
Visibility: 10 miles , 16 km
Cloud details: Partly cloudy 200 ft
2020/01/19 12:15 KFQD 191215Z AUTO 28007KT 240V300 10SM SCT002 05/05 A2994 RMK AO2
 
KGRD - Greenwood, South Carolina, USA
Distance from station: S 45mi, 73km
Updated: Sun, 19-Jan-2020 6:56am EST
Few Clouds
Few Clouds
 Wind from WSW
Wind: WSW 8 mph , 13 km/h
Temperature: 48°F , 9°C
Wind Chill: 44°F , 7°C
Dew Point: 48°F , 9°C
Humidity: 100%
Barometer: 29.99 inHg , 1015.6 hPa
Clouds: Few Clouds
Visibility: 9 miles , 14 km
Cloud details: Few Clouds 600 ft
Few Clouds 10000 ft
2020/01/19 11:56 KGRD 191156Z AUTO 24007KT 9SM FEW006 FEW100 09/09 A2999 RMK AO2 SLP157 60001 70016 T00890089 10089 20056 53005
KEHO - Shelby Muni, North Carolina, USA
Distance from station: ENE 46mi, 74km
Updated: Sun, 19-Jan-2020 7:15am EST
Mist, Overcast
Mist, Overcast
 Wind from WSW
Wind: WSW 5 mph , 7 km/h
Temperature: 46°F , 8°C
Wind Chill: 44°F , 7°C
Dew Point: 46°F , 8°C
Humidity: 100%
Barometer: 29.94 inHg , 1013.9 hPa
Summary: Mist
Clouds: Overcast
Visibility: 5 miles , 8 km
Cloud details: Overcast 300 ft
2020/01/19 12:15 KEHO 191215Z AUTO 25004KT 5SM BR OVC003 08/08 A2994 RMK AO2 T00750075